createdAt,value
2022-09-15T00:01:18.128Z,73.64
2022-09-15T00:03:47.560Z,73.84
2022-09-15T00:06:15.873Z,73.73
2022-09-15T00:08:44.036Z,73.82
2022-09-15T00:11:22.264Z,74.06
2022-09-15T00:13:51.060Z,74.19
2022-09-15T00:16:21.031Z,74.25
2022-09-15T00:18:49.350Z,74.30
2022-09-15T00:21:23.437Z,74.45
2022-09-15T00:23:51.663Z,74.60
2022-09-15T00:26:22.812Z,74.47
2022-09-15T00:28:51.487Z,74.61
2022-09-15T00:31:22.535Z,74.65
2022-09-15T00:33:52.618Z,74.71
2022-09-15T00:36:21.736Z,74.73
2022-09-15T00:38:50.890Z,74.82
2022-09-15T00:41:20.334Z,74.94
2022-09-15T00:44:06.318Z,74.99
2022-09-15T00:46:41.078Z,75.15
2022-09-15T00:49:19.007Z,75.19
2022-09-15T00:51:54.631Z,75.31
2022-09-15T00:54:31.642Z,75.29
2022-09-15T00:57:09.705Z,75.40
2022-09-15T00:59:40.439Z,75.34
2022-09-15T01:02:18.787Z,75.42
2022-09-15T01:04:48.765Z,75.46
2022-09-15T01:07:25.552Z,75.57
2022-09-15T01:10:08.427Z,75.59
2022-09-15T01:12:36.566Z,75.64
2022-09-15T01:15:04.720Z,75.62
2022-09-15T01:17:51.195Z,75.48
2022-09-15T01:20:34.487Z,75.55
2022-09-15T01:23:18.147Z,75.80
2022-09-15T01:26:15.746Z,75.74
2022-09-15T01:29:21.195Z,75.73
2022-09-15T01:32:27.040Z,75.72
2022-09-15T01:35:23.507Z,75.87
2022-09-15T01:38:23.095Z,75.84
2022-09-15T01:41:05.763Z,75.79
2022-09-15T01:43:39.202Z,75.83
2022-09-15T01:46:08.885Z,75.85
2022-09-15T01:48:38.562Z,75.82
2022-09-15T01:51:07.465Z,75.87
2022-09-15T01:53:36.053Z,75.91
2022-09-15T01:56:10.824Z,76.17
2022-09-15T01:58:40.772Z,76.04
2022-09-15T02:01:22.089Z,76.10
2022-09-15T02:03:56.346Z,76.21
2022-09-15T02:06:51.993Z,76.40
2022-09-15T02:09:23.037Z,76.46
2022-09-15T02:12:19.864Z,76.58
2022-09-15T02:15:10.841Z,76.55
2022-09-15T02:17:45.556Z,76.53
2022-09-15T02:20:23.613Z,76.50
2022-09-15T02:23:00.029Z,76.54
2022-09-15T02:25:32.693Z,76.60
2022-09-15T02:28:04.587Z,76.50
2022-09-15T02:30:33.077Z,76.77
2022-09-15T02:33:06.673Z,76.76
2022-09-15T02:35:36.121Z,76.66
2022-09-15T02:38:09.058Z,76.82
2022-09-15T02:40:41.196Z,76.79
2022-09-15T02:43:14.101Z,76.74
2022-09-15T02:45:42.179Z,76.78
2022-09-15T02:48:09.997Z,76.89
2022-09-15T02:50:38.885Z,76.87
2022-09-15T02:53:07.811Z,76.93
2022-09-15T02:55:35.585Z,77.02
2022-09-15T02:58:04.770Z,77.05
2022-09-15T03:00:33.466Z,77.28
2022-09-15T03:03:01.215Z,77.29
2022-09-15T03:05:30.225Z,77.33
2022-09-15T03:07:58.049Z,77.33
2022-09-15T03:10:26.445Z,77.52
2022-09-15T03:12:55.235Z,77.53
2022-09-15T03:15:24.850Z,77.67
2022-09-15T03:17:53.463Z,77.66
2022-09-15T03:20:24.259Z,77.68
2022-09-15T03:22:52.021Z,77.90
2022-09-15T03:25:20.832Z,77.85
2022-09-15T03:27:48.537Z,77.82
2022-09-15T03:30:16.350Z,77.79
2022-09-15T03:32:45.969Z,77.80
2022-09-15T03:35:13.762Z,77.93
2022-09-15T03:37:41.550Z,77.93
2022-09-15T03:40:10.739Z,77.92
2022-09-15T03:42:38.635Z,77.95
2022-09-15T03:45:08.407Z,78.05
2022-09-15T03:47:36.111Z,78.09
2022-09-15T03:50:04.150Z,78.02
2022-09-15T03:52:32.154Z,78.21
2022-09-15T03:54:59.880Z,78.28
2022-09-15T03:57:27.727Z,78.32
2022-09-15T03:59:55.496Z,78.35
2022-09-15T04:02:23.339Z,78.47
2022-09-15T04:04:51.136Z,78.32
2022-09-15T04:07:18.841Z,78.42
2022-09-15T04:09:46.582Z,78.48
2022-09-15T04:12:14.326Z,78.44
2022-09-15T04:14:42.169Z,78.60
2022-09-15T04:17:11.525Z,78.70
2022-09-15T04:19:39.326Z,78.64
2022-09-15T04:22:07.891Z,78.71
2022-09-15T04:24:36.296Z,78.80
2022-09-15T04:27:04.261Z,78.98
2022-09-15T04:29:31.964Z,79.04
2022-09-15T04:31:59.716Z,79.03
2022-09-15T04:34:27.487Z,79.37
2022-09-15T04:36:55.208Z,79.45
2022-09-15T04:39:23.429Z,79.45
2022-09-15T04:41:51.251Z,79.50
2022-09-15T04:44:19.109Z,79.53
2022-09-15T04:46:46.907Z,79.69
2022-09-15T04:49:14.692Z,79.74
2022-09-15T04:51:42.642Z,79.66
2022-09-15T04:54:10.735Z,79.61
2022-09-15T04:56:39.188Z,79.64
2022-09-15T04:59:16.600Z,79.66
2022-09-15T05:01:45.269Z,79.82
2022-09-15T05:04:13.428Z,79.69
2022-09-15T05:06:41.285Z,79.79
2022-09-15T05:09:13.529Z,79.77
2022-09-15T05:11:41.437Z,79.85
2022-09-15T05:14:10.624Z,79.82
2022-09-15T05:16:40.046Z,79.81
2022-09-15T05:19:09.276Z,79.81
2022-09-15T05:21:36.989Z,79.83
2022-09-15T05:24:05.457Z,80.00
2022-09-15T05:26:33.432Z,79.92
2022-09-15T05:29:01.197Z,79.91
2022-09-15T05:31:31.414Z,79.74
2022-09-15T05:34:04.330Z,79.77
2022-09-15T05:36:33.907Z,79.72
2022-09-15T05:39:01.925Z,79.68
2022-09-15T05:41:30.793Z,79.73
2022-09-15T05:43:58.975Z,79.85
2022-09-15T05:46:29.033Z,79.81
2022-09-15T05:48:58.568Z,79.77
2022-09-15T05:51:30.397Z,79.69
2022-09-15T05:53:59.779Z,79.65
2022-09-15T05:56:27.866Z,79.69
2022-09-15T05:58:57.195Z,79.71
2022-09-15T06:01:28.525Z,79.60
2022-09-15T06:03:57.651Z,79.67
2022-09-15T06:10:09.175Z,79.71
2022-09-15T06:12:36.890Z,79.69
2022-09-15T06:15:04.951Z,79.67
2022-09-15T06:17:34.032Z,79.58
2022-09-15T06:20:01.969Z,79.49
2022-09-15T06:22:44.881Z,79.43
2022-09-15T06:25:14.791Z,79.33
2022-09-15T06:27:43.549Z,79.20
2022-09-15T06:30:12.353Z,79.09
2022-09-15T06:32:40.369Z,78.67
2022-09-15T06:35:08.604Z,78.66
2022-09-15T06:37:36.472Z,78.55
2022-09-15T06:40:05.185Z,78.49
2022-09-15T06:42:33.078Z,78.54
2022-09-15T06:45:01.121Z,78.37
2022-09-15T06:47:33.775Z,78.30
2022-09-15T06:50:01.544Z,78.26
2022-09-15T06:52:29.307Z,78.34
2022-09-15T06:54:59.104Z,78.28
2022-09-15T06:57:32.166Z,78.29
2022-09-15T07:00:09.445Z,78.42
2022-09-15T07:02:39.622Z,78.58
2022-09-15T07:05:11.271Z,78.59
2022-09-15T07:07:46.143Z,78.54
2022-09-15T07:10:13.862Z,78.62
2022-09-15T07:12:42.455Z,78.45
2022-09-15T07:15:10.725Z,78.61
2022-09-15T07:17:39.260Z,78.96
2022-09-15T07:20:09.053Z,78.96
2022-09-15T07:22:52.881Z,78.76
2022-09-15T07:25:20.495Z,78.27
2022-09-15T07:27:48.183Z,78.01
2022-09-15T07:30:15.972Z,78.19
2022-09-15T07:32:43.618Z,78.10
2022-09-15T07:35:11.265Z,77.72
2022-09-15T07:37:39.471Z,78.27
2022-09-15T07:40:07.920Z,77.49
2022-09-15T07:42:35.744Z,77.45
2022-09-15T07:45:03.813Z,77.54
2022-09-15T07:47:35.850Z,77.30
2022-09-15T07:50:05.930Z,76.98
2022-09-15T07:52:33.758Z,76.72
2022-09-15T07:55:01.487Z,76.76
2022-09-15T07:57:29.220Z,76.63
2022-09-15T07:59:56.985Z,76.39
2022-09-15T08:02:24.841Z,75.61
2022-09-15T08:04:53.100Z,75.52
2022-09-15T08:07:20.843Z,76.12
2022-09-15T08:09:48.620Z,76.19
2022-09-15T08:12:16.669Z,76.07
2022-09-15T08:14:44.814Z,75.86
2022-09-15T08:17:12.629Z,75.48
2022-09-15T08:19:40.532Z,75.10
2022-09-15T08:22:10.893Z,75.48
2022-09-15T08:24:41.172Z,74.64
2022-09-15T08:27:09.064Z,74.41
2022-09-15T08:29:36.820Z,74.22
2022-09-15T08:32:05.114Z,74.49
2022-09-15T08:34:32.853Z,74.13
2022-09-15T08:37:00.920Z,73.63
2022-09-15T08:39:28.848Z,73.36
2022-09-15T08:42:02.761Z,72.67
2022-09-15T08:44:39.994Z,72.51
2022-09-15T08:47:15.836Z,71.53
2022-09-15T08:49:58.879Z,72.02
2022-09-15T08:52:33.414Z,71.59
2022-09-15T08:55:06.923Z,70.71
2022-09-15T08:57:34.514Z,71.12
2022-09-15T09:00:02.714Z,69.80
2022-09-15T09:03:03.427Z,70.29
2022-09-15T09:05:41.659Z,69.72
2022-09-15T09:08:25.765Z,68.05
2022-09-15T09:11:19.957Z,68.14
2022-09-15T09:14:08.547Z,67.02
2022-09-15T09:16:51.370Z,67.47
2022-09-15T09:19:53.027Z,68.37
2022-09-15T09:22:29.467Z,67.65
2022-09-15T09:25:00.148Z,66.48
2022-09-15T09:27:34.943Z,67.32
2022-09-15T09:30:14.061Z,66.51
2022-09-15T09:32:54.034Z,63.91
2022-09-15T09:35:45.678Z,64.52
2022-09-15T09:38:21.962Z,64.12
2022-09-15T09:40:50.777Z,63.48
2022-09-15T09:43:19.067Z,63.60
2022-09-15T09:45:50.246Z,63.87
2022-09-15T09:48:21.978Z,61.68
2022-09-15T09:50:50.832Z,61.28
2022-09-15T09:53:18.520Z,61.83
2022-09-15T09:55:46.370Z,61.76
2022-09-15T09:58:24.282Z,59.88
2022-09-15T10:00:53.122Z,61.67
2022-09-15T10:03:22.331Z,61.75
2022-09-15T10:06:06.113Z,61.52
2022-09-15T10:08:36.839Z,61.43
2022-09-15T10:11:10.247Z,59.27
2022-09-15T10:13:49.825Z,59.10
2022-09-15T10:16:19.350Z,59.06
2022-09-15T10:18:54.001Z,59.62
2022-09-15T10:21:24.843Z,58.03
2022-09-15T10:23:53.154Z,58.55
2022-09-15T10:26:24.020Z,58.21
2022-09-15T10:29:11.169Z,59.11
2022-09-15T10:31:39.719Z,57.04
2022-09-15T10:34:30.622Z,57.95
2022-09-15T10:37:20.049Z,58.19
2022-09-15T10:39:52.993Z,57.77
2022-09-15T10:42:36.775Z,57.84
2022-09-15T10:45:13.370Z,55.27
2022-09-15T10:48:08.945Z,55.98
2022-09-15T10:50:46.783Z,55.09
2022-09-15T10:53:31.394Z,56.89
2022-09-15T10:56:14.983Z,56.69
2022-09-15T10:59:00.819Z,55.97
2022-09-15T11:01:29.676Z,56.19
2022-09-15T11:04:27.045Z,56.10
2022-09-15T11:07:16.570Z,55.30
2022-09-15T11:09:57.479Z,55.37
2022-09-15T11:12:31.264Z,55.18
2022-09-15T11:15:11.546Z,54.45
2022-09-15T11:18:18.215Z,54.80
2022-09-15T11:21:19.351Z,54.58
2022-09-15T11:24:05.952Z,55.49
2022-09-15T11:26:40.237Z,55.51
2022-09-15T11:29:25.158Z,55.10
2022-09-15T11:34:36.504Z,55.78
2022-09-15T11:37:12.097Z,55.40
2022-09-15T11:39:45.159Z,55.04
2022-09-15T11:42:46.540Z,55.18
2022-09-15T11:45:25.502Z,53.32
2022-09-15T11:47:59.700Z,53.87
2022-09-15T11:50:35.799Z,53.73
2022-09-15T11:53:36.589Z,54.15
2022-09-15T11:56:15.913Z,54.25
2022-09-15T11:58:55.405Z,54.37
2022-09-15T12:01:28.654Z,53.99
2022-09-15T12:04:13.928Z,54.73
2022-09-15T12:07:14.477Z,54.85
2022-09-15T12:09:42.878Z,55.28
2022-09-15T12:12:17.986Z,55.20
2022-09-15T12:14:49.246Z,55.11
2022-09-15T12:17:37.515Z,55.11
2022-09-15T12:20:48.477Z,55.18
2022-09-15T12:23:16.169Z,55.01
2022-09-15T12:26:10.835Z,54.64
2022-09-15T12:28:56.197Z,54.64
2022-09-15T12:31:36.737Z,55.04
2022-09-15T12:34:21.558Z,54.56
2022-09-15T12:36:52.435Z,54.65
2022-09-15T12:39:28.651Z,54.84
2022-09-15T12:42:05.815Z,54.33
2022-09-15T12:44:40.364Z,54.36
2022-09-15T12:47:20.617Z,53.92
2022-09-15T12:49:51.662Z,53.54
2022-09-15T12:52:22.566Z,52.75
2022-09-15T12:54:55.504Z,52.44
2022-09-15T12:57:25.996Z,52.42
2022-09-15T13:00:32.491Z,52.02
2022-09-15T13:03:47.424Z,53.03
2022-09-15T13:06:21.426Z,52.41
2022-09-15T13:08:51.148Z,53.13
2022-09-15T13:11:37.691Z,53.40
2022-09-15T13:14:12.301Z,53.64
2022-09-15T13:16:40.264Z,53.88
2022-09-15T13:19:12.305Z,54.29
2022-09-15T13:21:45.050Z,54.48
2022-09-15T13:24:38.205Z,54.81
2022-09-15T13:27:07.715Z,54.65
2022-09-15T13:29:53.068Z,55.26
2022-09-15T13:32:40.997Z,55.34
2022-09-15T13:35:24.966Z,55.73
2022-09-15T13:38:20.001Z,55.64
2022-09-15T13:40:52.293Z,55.92
2022-09-15T13:43:26.174Z,55.59
2022-09-15T13:46:12.515Z,54.80
2022-09-15T13:48:59.387Z,54.79
2022-09-15T13:51:29.894Z,54.33
2022-09-15T13:54:05.560Z,53.72
2022-09-15T13:56:38.516Z,53.30
2022-09-15T13:59:16.851Z,51.53
2022-09-15T14:01:45.556Z,50.65
2022-09-15T14:04:26.893Z,52.35
2022-09-15T14:07:00.240Z,52.62
2022-09-15T14:09:40.347Z,52.27
2022-09-15T14:12:12.029Z,51.81
2022-09-15T14:14:46.562Z,52.01
2022-09-15T14:17:23.974Z,52.19
2022-09-15T14:19:54.495Z,52.71
2022-09-15T14:22:29.945Z,52.47
2022-09-15T14:24:59.529Z,52.74
2022-09-15T14:27:30.577Z,52.99
2022-09-15T14:30:03.165Z,52.73
2022-09-15T14:32:38.396Z,52.88
2022-09-15T14:35:09.397Z,52.97
2022-09-15T14:37:37.264Z,50.02
2022-09-15T14:40:37.716Z,49.02
2022-09-15T14:43:42.037Z,48.44
2022-09-15T14:46:17.008Z,49.31
2022-09-15T14:48:44.918Z,49.43
2022-09-15T14:51:33.254Z,49.29
2022-09-15T14:54:05.453Z,47.89
2022-09-15T14:56:38.423Z,45.72
2022-09-15T14:59:19.072Z,46.24
2022-09-15T15:01:55.414Z,46.98
2022-09-15T15:04:36.234Z,46.33
2022-09-15T15:07:04.933Z,44.15
2022-09-15T15:09:54.416Z,43.93
2022-09-15T15:12:43.572Z,43.82
2022-09-15T15:15:16.585Z,42.78
2022-09-15T15:17:50.785Z,44.57
2022-09-15T15:20:22.841Z,45.98
2022-09-15T15:23:22.958Z,46.63
2022-09-15T15:25:51.776Z,47.39
2022-09-15T15:28:36.456Z,47.78
2022-09-15T15:31:12.261Z,48.37
2022-09-15T15:33:56.615Z,48.54
2022-09-15T15:36:26.370Z,48.50
2022-09-15T15:38:57.058Z,48.68
2022-09-15T15:41:28.367Z,48.89
2022-09-15T15:44:09.199Z,49.08
2022-09-15T15:46:54.784Z,49.05
2022-09-15T15:49:31.910Z,49.06
2022-09-15T15:52:02.503Z,49.62
2022-09-15T15:54:34.144Z,49.55
2022-09-15T15:57:22.050Z,49.48
2022-09-15T15:59:56.921Z,49.68
2022-09-15T16:02:28.260Z,50.18
2022-09-15T16:04:56.103Z,50.29
2022-09-15T16:07:29.923Z,50.85
2022-09-15T16:10:01.740Z,51.42
2022-09-15T16:12:31.965Z,52.98
2022-09-15T16:15:10.427Z,56.52
2022-09-15T16:17:40.844Z,57.74
2022-09-15T16:20:11.748Z,59.28
2022-09-15T16:22:40.622Z,59.18
2022-09-15T16:25:30.854Z,60.22
2022-09-15T16:28:00.405Z,60.71
2022-09-15T16:30:28.485Z,61.35
2022-09-15T16:32:56.285Z,61.55
2022-09-15T16:35:33.406Z,61.47
2022-09-15T16:38:01.325Z,61.43
2022-09-15T16:40:29.333Z,61.92
2022-09-15T16:42:57.481Z,62.15
2022-09-15T16:45:38.194Z,62.05
2022-09-15T16:48:10.489Z,61.92
2022-09-15T16:50:40.146Z,63.39
2022-09-15T16:53:15.668Z,63.71
2022-09-15T16:55:47.287Z,64.76
2022-09-15T16:58:16.729Z,64.76
2022-09-15T17:00:47.100Z,65.22
2022-09-15T17:03:17.413Z,65.37
2022-09-15T17:05:50.158Z,64.67
2022-09-15T17:08:20.358Z,65.21
2022-09-15T17:10:49.252Z,65.21
2022-09-15T17:13:22.260Z,65.45
2022-09-15T17:15:54.092Z,65.50
2022-09-15T17:18:22.730Z,65.37
2022-09-15T17:20:50.898Z,66.21
2022-09-15T17:23:27.955Z,65.72
2022-09-15T17:25:59.727Z,66.07
2022-09-15T17:28:33.107Z,65.76
2022-09-15T17:31:03.910Z,65.63
2022-09-15T17:33:32.985Z,65.98
2022-09-15T17:36:00.871Z,65.44
2022-09-15T17:38:28.832Z,66.06
2022-09-15T17:40:56.627Z,66.69
2022-09-15T17:43:27.232Z,66.17
2022-09-15T17:45:55.610Z,66.48
2022-09-15T17:48:23.694Z,67.34
2022-09-15T17:50:52.314Z,66.51
2022-09-15T17:53:23.435Z,67.11
2022-09-15T17:55:51.228Z,66.87
2022-09-15T17:58:19.105Z,67.07
2022-09-15T18:00:48.678Z,67.66
2022-09-15T18:03:22.262Z,66.59
2022-09-15T18:05:51.525Z,66.76
2022-09-15T18:08:19.385Z,65.89
2022-09-15T18:10:47.722Z,65.73
2022-09-15T18:13:19.573Z,65.70
2022-09-15T18:15:51.202Z,65.71
2022-09-15T18:18:22.668Z,65.92
2022-09-15T18:20:52.903Z,66.00
2022-09-15T18:23:24.032Z,65.66
2022-09-15T18:25:52.278Z,65.71
2022-09-15T18:28:20.320Z,65.39
2022-09-15T18:30:50.399Z,65.55
2022-09-15T18:33:24.475Z,65.25
2022-09-15T18:35:55.276Z,64.98
2022-09-15T18:38:23.224Z,64.81
2022-09-15T18:40:54.011Z,64.72
2022-09-15T18:43:23.539Z,64.78
2022-09-15T18:45:53.244Z,64.98
2022-09-15T18:48:21.506Z,65.04
2022-09-15T18:50:49.513Z,65.09
2022-09-15T18:53:17.255Z,65.28
2022-09-15T18:55:45.071Z,65.23
2022-09-15T18:58:13.487Z,65.32
2022-09-15T19:00:41.823Z,65.63
2022-09-15T19:03:09.707Z,65.66
2022-09-15T19:05:38.539Z,65.59
2022-09-15T19:08:08.458Z,65.62
2022-09-15T19:10:39.379Z,65.77
2022-09-15T19:13:07.553Z,65.86
2022-09-15T19:15:35.418Z,65.92
2022-09-15T19:18:03.517Z,65.91
2022-09-15T19:20:31.263Z,66.08
2022-09-15T19:22:59.127Z,66.22
2022-09-15T19:25:27.092Z,66.35
2022-09-15T19:27:54.952Z,66.58
2022-09-15T19:30:25.378Z,67.06
2022-09-15T19:32:54.017Z,67.17
2022-09-15T19:35:22.978Z,67.11
2022-09-15T19:37:51.113Z,67.57
2022-09-15T19:40:19.097Z,67.43
2022-09-15T19:42:47.221Z,67.65
2022-09-15T19:45:14.993Z,67.59
2022-09-15T19:47:42.864Z,67.59
2022-09-15T19:50:12.048Z,67.63
2022-09-15T19:52:40.142Z,67.91
2022-09-15T19:55:09.555Z,68.03
2022-09-15T19:57:41.951Z,67.96
2022-09-15T20:00:12.390Z,68.07
2022-09-15T20:02:40.721Z,68.17
2022-09-15T20:05:09.248Z,68.24
2022-09-15T20:07:37.067Z,68.31
2022-09-15T20:10:05.585Z,68.37
2022-09-15T20:12:33.588Z,68.68
2022-09-15T20:15:01.761Z,68.59
2022-09-15T20:17:29.781Z,68.69
2022-09-15T20:19:57.809Z,68.68
2022-09-15T20:22:26.006Z,68.93
2022-09-15T20:24:56.015Z,68.97
2022-09-15T20:27:23.905Z,69.10
2022-09-15T20:29:51.748Z,69.31
2022-09-15T20:32:22.807Z,69.35
2022-09-15T20:34:53.867Z,69.40
2022-09-15T20:37:23.014Z,69.44
2022-09-15T20:39:51.385Z,69.95
2022-09-15T20:42:19.467Z,69.85
2022-09-15T20:44:47.352Z,69.87
2022-09-15T20:47:15.131Z,70.01
2022-09-15T20:49:42.945Z,70.11
2022-09-15T20:52:10.767Z,69.83
2022-09-15T20:54:38.549Z,69.74
2022-09-15T20:57:06.900Z,69.67
2022-09-15T20:59:34.781Z,69.55
2022-09-15T21:02:05.657Z,69.62
2022-09-15T21:04:33.919Z,69.52
2022-09-15T21:07:01.720Z,69.44
2022-09-15T21:09:29.491Z,69.50
2022-09-15T21:11:57.357Z,69.56
2022-09-15T21:14:25.178Z,69.70
2022-09-15T21:16:53.871Z,69.70
2022-09-15T21:19:21.857Z,69.93
2022-09-15T21:21:49.742Z,70.07
2022-09-15T21:24:17.521Z,70.07
2022-09-15T21:27:01.277Z,70.09
2022-09-15T21:29:30.059Z,70.13
2022-09-15T21:31:57.976Z,70.15
2022-09-15T21:34:26.315Z,70.32
2022-09-15T21:36:54.547Z,70.22
2022-09-15T21:39:22.780Z,70.39
2022-09-15T21:41:50.653Z,70.37
2022-09-15T21:44:18.702Z,70.62
2022-09-15T21:46:47.187Z,70.71
2022-09-15T21:49:15.130Z,70.84
2022-09-15T21:51:42.909Z,70.94
2022-09-15T21:54:10.713Z,71.08
2022-09-15T21:56:38.541Z,71.19
2022-09-15T21:59:08.245Z,71.39
2022-09-15T22:01:36.704Z,71.59
2022-09-15T22:04:06.487Z,71.64
2022-09-15T22:06:36.955Z,71.84
2022-09-15T22:09:08.634Z,72.23
2022-09-15T22:11:37.062Z,72.43
2022-09-15T22:14:08.120Z,72.72
2022-09-15T22:16:38.275Z,72.90
2022-09-15T22:19:07.963Z,73.02
2022-09-15T22:21:37.060Z,73.52
2022-09-15T22:24:07.165Z,73.45
2022-09-15T22:26:37.416Z,73.43
2022-09-15T22:29:06.333Z,73.50
2022-09-15T22:31:35.014Z,73.53
2022-09-15T22:34:03.650Z,73.79
2022-09-15T22:39:58.120Z,74.52
2022-09-15T22:42:25.897Z,74.70
2022-09-15T22:44:53.649Z,74.79
2022-09-15T22:47:21.562Z,74.98
2022-09-15T22:49:49.825Z,75.09
2022-09-15T22:52:18.046Z,75.24
2022-09-15T22:54:46.002Z,75.17
2022-09-15T22:57:14.328Z,75.19
2022-09-15T22:59:42.419Z,75.86
2022-09-15T23:02:10.455Z,75.62
2022-09-15T23:04:38.452Z,76.10
2022-09-15T23:07:06.232Z,76.05
2022-09-15T23:09:36.044Z,75.89
2022-09-15T23:12:04.064Z,76.63
2022-09-15T23:14:32.325Z,76.53
2022-09-15T23:17:00.233Z,76.90
2022-09-15T23:19:28.341Z,77.03
2022-09-15T23:21:56.192Z,77.39
2022-09-15T23:24:24.058Z,77.65
2022-09-15T23:26:51.782Z,76.77
2022-09-15T23:29:19.801Z,76.70
2022-09-15T23:31:47.627Z,76.86
2022-09-15T23:34:15.835Z,76.87
2022-09-15T23:36:43.604Z,76.89
2022-09-15T23:39:11.664Z,76.93
2022-09-15T23:41:40.575Z,76.75
2022-09-15T23:44:08.492Z,76.92
2022-09-15T23:46:36.363Z,76.45
2022-09-15T23:49:04.159Z,76.48
2022-09-15T23:51:32.288Z,76.43
2022-09-15T23:54:02.054Z,76.79
2022-09-15T23:56:30.132Z,76.67
2022-09-15T23:58:57.951Z,76.73
